createdAt,value
2022-09-24T00:01:40.583Z,100.00
2022-09-24T00:04:12.229Z,100.00
2022-09-24T00:06:45.473Z,100.00
2022-09-24T00:09:19.276Z,100.00
2022-09-24T00:11:47.488Z,100.00
2022-09-24T00:14:14.794Z,100.00
2022-09-24T00:16:43.914Z,100.00
2022-09-24T00:19:13.436Z,100.00
2022-09-24T00:21:41.821Z,100.00
2022-09-24T00:24:35.781Z,100.00
2022-09-24T00:27:04.671Z,100.00
2022-09-24T00:29:35.474Z,100.00
2022-09-24T00:32:04.724Z,100.00
2022-09-24T00:34:32.368Z,100.00
2022-09-24T00:36:59.690Z,100.00
2022-09-24T00:39:27.277Z,100.00
2022-09-24T00:41:55.809Z,100.00
2022-09-24T00:44:45.524Z,100.00
2022-09-24T00:47:20.450Z,100.00
2022-09-24T00:49:49.916Z,100.00
2022-09-24T00:52:19.060Z,100.00
2022-09-24T00:54:47.180Z,100.00
2022-09-24T00:57:14.748Z,100.00
2022-09-24T00:59:43.786Z,100.00
2022-09-24T01:02:11.298Z,100.00
2022-09-24T01:04:38.916Z,100.00
2022-09-24T01:07:06.583Z,100.00
2022-09-24T01:09:34.354Z,100.00
2022-09-24T01:12:22.853Z,100.00
2022-09-24T01:14:55.478Z,100.00
2022-09-24T01:17:35.236Z,100.00
2022-09-24T01:20:22.809Z,100.00
2022-09-24T01:23:20.932Z,100.00
2022-09-24T01:25:54.683Z,100.00
2022-09-24T01:28:55.239Z,100.00
2022-09-24T01:31:33.373Z,100.00
2022-09-24T01:34:05.795Z,100.00
2022-09-24T01:36:38.880Z,100.00
2022-09-24T01:39:09.090Z,100.00
2022-09-24T01:41:38.631Z,100.00
2022-09-24T01:44:07.961Z,100.00
2022-09-24T01:46:39.248Z,100.00
2022-09-24T01:49:07.423Z,100.00
2022-09-24T01:51:44.402Z,100.00
2022-09-24T01:54:33.033Z,100.00
2022-09-24T01:57:14.095Z,100.00
2022-09-24T01:59:48.150Z,100.00
2022-09-24T02:02:35.794Z,100.00
2022-09-24T02:05:12.848Z,100.00
2022-09-24T02:07:51.781Z,100.00
2022-09-24T02:10:21.079Z,100.00
2022-09-24T02:12:57.884Z,100.00
2022-09-24T02:15:38.671Z,100.00
2022-09-24T02:18:14.524Z,100.00
2022-09-24T02:20:44.502Z,100.00
2022-09-24T02:23:15.239Z,100.00
2022-09-24T02:25:50.747Z,100.00
2022-09-24T02:28:19.413Z,100.00
2022-09-24T02:30:56.888Z,100.00
2022-09-24T02:33:45.560Z,100.00
2022-09-24T02:36:12.727Z,100.00
2022-09-24T02:38:40.143Z,100.00
2022-09-24T02:41:08.180Z,100.00
2022-09-24T02:43:36.465Z,100.00
2022-09-24T02:46:03.986Z,100.00
2022-09-24T02:48:31.166Z,100.00
2022-09-24T02:50:58.317Z,100.00
2022-09-24T02:53:25.667Z,100.00
2022-09-24T02:55:52.861Z,100.00
2022-09-24T02:58:20.148Z,100.00
2022-09-24T03:00:47.553Z,100.00
2022-09-24T03:03:14.818Z,100.00
2022-09-24T03:05:42.067Z,100.00
2022-09-24T03:08:09.432Z,100.00
2022-09-24T03:10:36.613Z,100.00
2022-09-24T03:13:04.540Z,100.00
2022-09-24T03:15:31.929Z,100.00
2022-09-24T03:17:59.068Z,100.00
2022-09-24T03:20:26.208Z,100.00
2022-09-24T03:22:53.691Z,100.00
2022-09-24T03:25:21.511Z,100.00
2022-09-24T03:27:48.661Z,100.00
2022-09-24T03:30:34.776Z,100.00
2022-09-24T03:33:01.998Z,100.00
2022-09-24T03:35:29.365Z,100.00
2022-09-24T03:37:56.496Z,100.00
2022-09-24T03:40:23.721Z,100.00
2022-09-24T03:42:51.197Z,100.00
2022-09-24T03:45:18.357Z,100.00
2022-09-24T03:47:45.554Z,100.00
2022-09-24T03:50:12.944Z,100.00
2022-09-24T03:52:40.300Z,100.00
2022-09-24T03:55:08.191Z,100.00
2022-09-24T03:57:35.650Z,100.00
2022-09-24T04:00:03.387Z,100.00
2022-09-24T04:02:33.959Z,100.00
2022-09-24T04:05:01.819Z,100.00
2022-09-24T04:07:29.009Z,100.00
2022-09-24T04:09:56.203Z,100.00
2022-09-24T04:12:23.859Z,100.00
2022-09-24T04:14:50.985Z,100.00
2022-09-24T04:17:18.135Z,100.00
2022-09-24T04:19:45.465Z,100.00
2022-09-24T04:22:12.749Z,100.00
2022-09-24T04:24:40.569Z,100.00
2022-09-24T04:27:07.975Z,100.00
2022-09-24T04:29:35.185Z,100.00
2022-09-24T04:32:03.264Z,100.00
2022-09-24T04:34:30.590Z,100.00
2022-09-24T04:36:57.735Z,100.00
2022-09-24T04:39:27.314Z,100.00
2022-09-24T04:41:54.819Z,99.73
2022-09-24T04:44:23.609Z,100.00
2022-09-24T04:46:50.789Z,100.00
2022-09-24T04:49:18.229Z,100.00
2022-09-24T04:51:45.477Z,100.00
2022-09-24T04:54:12.783Z,100.00
2022-09-24T04:56:40.138Z,100.00
2022-09-24T04:59:07.346Z,100.00
2022-09-24T05:01:34.667Z,100.00
2022-09-24T05:04:02.426Z,100.00
2022-09-24T05:06:29.614Z,100.00
2022-09-24T05:08:56.768Z,100.00
2022-09-24T05:11:24.434Z,100.00
2022-09-24T05:13:51.698Z,100.00
2022-09-24T05:16:18.866Z,100.00
2022-09-24T05:18:46.267Z,100.00
2022-09-24T05:21:13.389Z,100.00
2022-09-24T05:23:40.521Z,100.00
2022-09-24T05:26:26.386Z,100.00
2022-09-24T05:28:53.693Z,100.00
2022-09-24T05:31:21.109Z,100.00
2022-09-24T05:33:48.366Z,100.00
2022-09-24T05:36:16.167Z,100.00
2022-09-24T05:38:43.520Z,100.00
2022-09-24T05:41:10.958Z,100.00
2022-09-24T05:43:38.602Z,100.00
2022-09-24T05:46:06.448Z,96.97
2022-09-24T05:48:33.816Z,94.06
2022-09-24T05:51:02.043Z,94.48
2022-09-24T05:53:29.391Z,93.03
2022-09-24T05:55:57.619Z,91.21
2022-09-24T05:58:24.955Z,91.47
2022-09-24T06:00:52.321Z,89.22
2022-09-24T06:03:20.771Z,88.95
2022-09-24T06:05:49.819Z,89.93
2022-09-24T06:08:18.852Z,89.48
2022-09-24T06:10:47.438Z,87.39
2022-09-24T06:13:18.142Z,88.59
2022-09-24T06:15:45.935Z,88.49
2022-09-24T06:18:13.321Z,86.95
2022-09-24T06:20:41.771Z,84.23
2022-09-24T06:23:09.181Z,82.79
2022-09-24T06:25:36.408Z,82.37
2022-09-24T06:28:04.789Z,81.23
2022-09-24T06:30:41.374Z,84.40
2022-09-24T06:33:13.108Z,88.42
2022-09-24T06:35:42.583Z,84.96
2022-09-24T06:38:15.399Z,84.23
2022-09-24T06:40:45.207Z,83.97
2022-09-24T06:43:13.581Z,80.34
2022-09-24T06:45:43.135Z,79.62
2022-09-24T06:48:12.435Z,79.50
2022-09-24T06:50:44.370Z,78.50
2022-09-24T06:53:12.667Z,77.19
2022-09-24T06:55:40.706Z,73.63
2022-09-24T06:58:10.891Z,67.72
2022-09-24T07:00:39.073Z,65.82
2022-09-24T07:03:07.672Z,63.36
2022-09-24T07:05:39.577Z,51.58
2022-09-24T07:08:10.052Z,44.86
2022-09-24T07:10:38.186Z,42.64
2022-09-24T07:13:05.338Z,42.84
2022-09-24T07:15:32.800Z,40.64
2022-09-24T07:17:59.942Z,38.48
2022-09-24T07:20:28.683Z,34.59
2022-09-24T07:22:56.403Z,32.51
2022-09-24T07:25:24.464Z,29.37
2022-09-24T07:27:51.708Z,31.06
2022-09-24T07:30:19.093Z,33.40
2022-09-24T07:32:46.314Z,34.29
2022-09-24T07:35:13.579Z,36.53
2022-09-24T07:37:40.985Z,39.93
2022-09-24T07:40:08.598Z,41.47
2022-09-24T07:42:35.834Z,43.01
2022-09-24T07:45:03.510Z,43.21
2022-09-24T07:47:31.021Z,43.82
2022-09-24T07:49:58.159Z,44.85
2022-09-24T07:52:25.527Z,43.80
2022-09-24T07:54:54.290Z,44.66
2022-09-24T07:57:21.493Z,43.61
2022-09-24T07:59:51.444Z,44.39
2022-09-24T08:02:19.035Z,44.43
2022-09-24T08:04:46.510Z,43.44
2022-09-24T08:07:14.270Z,44.76
2022-09-24T08:09:41.457Z,44.46
2022-09-24T08:12:10.096Z,44.02
2022-09-24T08:14:37.556Z,44.92
2022-09-24T08:17:04.945Z,44.00
2022-09-24T08:19:33.275Z,44.17
2022-09-24T08:22:00.815Z,45.37
2022-09-24T08:24:28.075Z,44.00
2022-09-24T08:26:55.254Z,41.71
2022-09-24T08:29:22.594Z,42.99
2022-09-24T08:31:49.815Z,41.14
2022-09-24T08:34:17.057Z,39.71
2022-09-24T08:36:44.446Z,34.72
2022-09-24T08:39:13.721Z,29.36
2022-09-24T08:42:02.419Z,28.68
2022-09-24T08:44:55.172Z,28.91
2022-09-24T08:47:50.937Z,28.63
2022-09-24T08:50:29.198Z,31.74
2022-09-24T08:53:06.795Z,38.38
2022-09-24T08:55:40.170Z,38.94
2022-09-24T08:58:29.119Z,37.32
2022-09-24T09:01:04.051Z,37.57
2022-09-24T09:03:51.786Z,34.07
2022-09-24T09:06:40.637Z,31.13
2022-09-24T09:09:39.634Z,28.42
2022-09-24T09:12:14.811Z,27.33
2022-09-24T09:14:54.632Z,26.69
2022-09-24T09:17:42.338Z,27.91
2022-09-24T09:20:33.820Z,34.46
2022-09-24T09:23:25.763Z,30.96
2022-09-24T09:25:57.773Z,31.72
2022-09-24T09:28:29.506Z,30.57
2022-09-24T09:30:56.961Z,31.93
2022-09-24T09:33:47.566Z,32.91
2022-09-24T09:36:35.798Z,30.79
2022-09-24T09:39:33.104Z,30.87
2022-09-24T09:42:17.647Z,35.34
2022-09-24T09:44:46.158Z,33.90
2022-09-24T09:47:16.536Z,32.38
2022-09-24T09:49:46.355Z,30.74
2022-09-24T09:52:18.828Z,34.22
2022-09-24T09:54:46.955Z,36.23
2022-09-24T09:57:21.754Z,35.48
2022-09-24T09:59:51.171Z,33.20
2022-09-24T10:02:25.881Z,33.65
2022-09-24T10:04:59.998Z,32.06
2022-09-24T10:07:29.169Z,32.15
2022-09-24T10:10:17.048Z,32.69
2022-09-24T10:12:44.925Z,30.94
2022-09-24T10:15:24.806Z,34.81
2022-09-24T10:17:55.222Z,33.43
2022-09-24T10:20:27.781Z,32.93
2022-09-24T10:23:03.469Z,33.66
2022-09-24T10:25:39.365Z,34.04
2022-09-24T10:28:28.295Z,39.49
2022-09-24T10:31:02.067Z,41.85
2022-09-24T10:33:38.086Z,38.72
2022-09-24T10:36:15.470Z,37.26
2022-09-24T10:38:43.806Z,34.13
2022-09-24T10:41:29.111Z,36.53
2022-09-24T10:44:02.895Z,39.61
2022-09-24T10:46:52.223Z,44.34
2022-09-24T10:49:25.491Z,46.72
2022-09-24T10:52:21.077Z,46.29
2022-09-24T10:54:54.340Z,49.45
2022-09-24T10:57:39.766Z,49.75
2022-09-24T11:00:10.548Z,48.27
2022-09-24T11:02:56.475Z,48.98
2022-09-24T11:05:24.964Z,49.49
2022-09-24T11:08:10.875Z,51.13
2022-09-24T11:11:21.141Z,52.88
2022-09-24T11:14:22.543Z,50.77
2022-09-24T11:17:16.324Z,52.92
2022-09-24T11:20:14.409Z,52.87
2022-09-24T11:23:08.263Z,49.99
2022-09-24T11:25:54.215Z,51.05
2022-09-24T11:28:43.335Z,48.94
2022-09-24T11:31:51.022Z,46.69
2022-09-24T11:34:51.773Z,47.31
2022-09-24T11:37:22.237Z,45.38
2022-09-24T11:40:04.653Z,46.11
2022-09-24T11:42:45.211Z,44.63
2022-09-24T11:45:27.296Z,45.39
2022-09-24T11:48:16.082Z,45.24
2022-09-24T11:50:59.977Z,45.35
2022-09-24T11:53:46.798Z,45.40
2022-09-24T11:56:22.716Z,43.74
2022-09-24T11:59:00.353Z,43.40
2022-09-24T12:01:36.102Z,43.98
2022-09-24T12:04:12.179Z,43.71
2022-09-24T12:06:55.022Z,43.31
2022-09-24T12:09:37.282Z,44.78
2022-09-24T12:12:30.695Z,45.63
2022-09-24T12:15:19.451Z,47.00
2022-09-24T12:17:52.864Z,47.44
2022-09-24T12:20:28.427Z,46.86
2022-09-24T12:23:18.813Z,48.71
2022-09-24T12:25:49.457Z,49.74
2022-09-24T12:28:39.650Z,50.64
2022-09-24T12:31:35.590Z,50.75
2022-09-24T12:34:16.963Z,49.88
2022-09-24T12:37:16.821Z,52.65
2022-09-24T12:40:00.770Z,51.59
2022-09-24T12:42:37.143Z,51.33
2022-09-24T12:45:10.127Z,52.04
2022-09-24T12:47:50.423Z,51.59
2022-09-24T12:50:25.180Z,53.43
2022-09-24T12:52:53.053Z,52.91
2022-09-24T12:55:20.528Z,52.34
2022-09-24T12:57:56.983Z,53.59
2022-09-24T13:00:41.394Z,52.93
2022-09-24T13:03:34.213Z,53.09
2022-09-24T13:06:02.312Z,52.43
2022-09-24T13:08:38.946Z,53.13
2022-09-24T13:11:26.426Z,52.49
2022-09-24T13:14:18.386Z,54.15
2022-09-24T13:16:50.318Z,53.10
2022-09-24T13:19:26.590Z,52.94
2022-09-24T13:21:57.719Z,52.38
2022-09-24T13:24:50.706Z,52.81
2022-09-24T13:27:22.480Z,52.73
2022-09-24T13:30:01.397Z,53.10
2022-09-24T13:32:34.519Z,54.25
2022-09-24T13:35:11.401Z,55.10
2022-09-24T13:37:43.490Z,53.88
2022-09-24T13:40:19.423Z,54.87
2022-09-24T13:42:58.901Z,52.23
2022-09-24T13:45:27.080Z,51.86
2022-09-24T13:48:03.751Z,52.09
2022-09-24T13:50:38.976Z,51.72
2022-09-24T13:53:16.934Z,52.85
2022-09-24T13:55:49.943Z,52.80
2022-09-24T13:58:31.290Z,52.83
2022-09-24T14:01:08.741Z,52.38
2022-09-24T14:03:40.247Z,53.88
2022-09-24T14:06:21.922Z,53.10
2022-09-24T14:08:49.700Z,55.52
2022-09-24T14:11:24.733Z,51.33
2022-09-24T14:13:52.631Z,49.85
2022-09-24T14:16:22.144Z,49.27
2022-09-24T14:19:00.332Z,49.93
2022-09-24T14:21:38.305Z,50.46
2022-09-24T14:24:13.701Z,51.30
2022-09-24T14:26:48.746Z,51.30
2022-09-24T14:29:26.267Z,50.49
2022-09-24T14:31:58.463Z,50.34
2022-09-24T14:34:27.332Z,49.92
2022-09-24T14:36:58.574Z,50.26
2022-09-24T14:39:29.563Z,49.86
2022-09-24T14:41:58.366Z,50.55
2022-09-24T14:44:28.491Z,50.12
2022-09-24T14:46:59.481Z,50.02
2022-09-24T14:49:31.438Z,49.84
2022-09-24T14:52:02.936Z,50.77
2022-09-24T14:54:35.013Z,51.49
2022-09-24T14:57:17.479Z,52.40
2022-09-24T14:59:46.291Z,53.50
2022-09-24T15:02:30.834Z,51.72
2022-09-24T15:05:06.490Z,52.24
2022-09-24T15:07:35.448Z,53.33
2022-09-24T15:10:05.022Z,54.05
2022-09-24T15:12:36.964Z,54.59
2022-09-24T15:15:26.652Z,55.49
2022-09-24T15:17:53.902Z,55.50
2022-09-24T15:20:21.266Z,56.16
2022-09-24T15:22:48.577Z,56.16
2022-09-24T15:25:15.986Z,56.75
2022-09-24T15:27:43.435Z,57.07
2022-09-24T15:30:17.699Z,58.14
2022-09-24T15:32:45.398Z,57.50
2022-09-24T15:35:15.139Z,58.08
2022-09-24T15:37:43.145Z,58.44
2022-09-24T15:40:23.038Z,58.53
2022-09-24T15:42:50.828Z,58.84
2022-09-24T15:45:24.018Z,59.77
2022-09-24T15:47:52.791Z,60.37
2022-09-24T15:50:22.600Z,61.08
2022-09-24T15:52:56.400Z,61.21
2022-09-24T15:55:24.312Z,62.27
2022-09-24T15:57:51.551Z,62.81
2022-09-24T16:00:23.865Z,63.53
2022-09-24T16:02:54.030Z,64.73
2022-09-24T16:05:21.484Z,65.21
2022-09-24T16:07:49.399Z,65.34
2022-09-24T16:10:17.499Z,66.01
2022-09-24T16:12:44.736Z,66.61
2022-09-24T16:15:14.471Z,67.23
2022-09-24T16:17:42.215Z,66.63
2022-09-24T16:20:10.518Z,66.32
2022-09-24T16:22:37.783Z,67.27
2022-09-24T16:25:05.991Z,67.99
2022-09-24T16:27:35.310Z,68.29
2022-09-24T16:30:03.051Z,69.27
2022-09-24T16:32:30.913Z,69.30
2022-09-24T16:34:58.118Z,70.01
2022-09-24T16:37:25.652Z,70.15
2022-09-24T16:39:53.033Z,70.78
2022-09-24T16:42:20.373Z,70.66
2022-09-24T16:44:47.621Z,71.72
2022-09-24T16:47:16.473Z,71.74
2022-09-24T16:49:43.688Z,72.25
2022-09-24T16:52:10.822Z,72.45
2022-09-24T16:54:38.327Z,72.47
2022-09-24T16:57:06.395Z,73.30
2022-09-24T16:59:33.863Z,74.07
2022-09-24T17:02:01.568Z,74.80
2022-09-24T17:04:29.892Z,75.38
2022-09-24T17:06:58.127Z,75.40
2022-09-24T17:09:44.536Z,75.52
2022-09-24T17:12:12.267Z,75.41
2022-09-24T17:14:39.870Z,75.43
2022-09-24T17:17:07.105Z,76.17
2022-09-24T17:19:34.320Z,76.08
2022-09-24T17:22:01.970Z,75.72
2022-09-24T17:24:29.323Z,75.86
2022-09-24T17:26:56.831Z,76.26
2022-09-24T17:29:30.398Z,75.54
2022-09-24T17:31:59.042Z,76.21
2022-09-24T17:34:26.757Z,76.83
2022-09-24T17:36:53.924Z,77.11
2022-09-24T17:39:21.060Z,77.57
2022-09-24T17:41:48.438Z,77.04
2022-09-24T17:44:17.306Z,79.12
2022-09-24T17:46:44.693Z,78.85
2022-09-24T17:49:12.406Z,79.16
2022-09-24T17:51:39.855Z,79.29
2022-09-24T17:54:15.987Z,81.11
2022-09-24T17:56:43.161Z,82.08
2022-09-24T17:59:12.029Z,84.08
2022-09-24T18:01:40.882Z,87.08
2022-09-24T18:04:12.046Z,89.06
2022-09-24T18:06:41.285Z,89.13
2022-09-24T18:09:10.110Z,89.60
2022-09-24T18:11:40.469Z,91.25
2022-09-24T18:14:14.510Z,93.22
2022-09-24T18:16:42.285Z,93.89
2022-09-24T18:19:10.266Z,94.96
2022-09-24T18:21:37.742Z,95.69
2022-09-24T18:24:05.250Z,96.31
2022-09-24T18:26:35.443Z,96.88
2022-09-24T18:29:06.234Z,98.09
2022-09-24T18:31:34.804Z,98.13
2022-09-24T18:34:05.857Z,98.40
2022-09-24T18:36:41.235Z,98.40
2022-09-24T18:39:13.226Z,98.61
2022-09-24T18:41:41.274Z,98.95
2022-09-24T18:44:09.190Z,99.90
2022-09-24T18:46:36.879Z,99.93
2022-09-24T18:49:06.341Z,100.00
2022-09-24T18:51:36.434Z,100.00
2022-09-24T18:54:11.989Z,100.00
2022-09-24T18:56:39.668Z,100.00
2022-09-24T18:59:10.829Z,100.00
2022-09-24T19:01:39.681Z,100.00
2022-09-24T19:04:10.925Z,100.00
2022-09-24T19:06:40.688Z,100.00
2022-09-24T19:09:08.911Z,100.00
2022-09-24T19:11:37.079Z,100.00
2022-09-24T19:14:04.477Z,100.00
2022-09-24T19:16:32.520Z,100.00
2022-09-24T19:19:01.203Z,100.00
2022-09-24T19:21:28.885Z,100.00
2022-09-24T19:23:57.499Z,100.00
2022-09-24T19:26:33.857Z,100.00
2022-09-24T19:29:01.653Z,100.00
2022-09-24T19:31:31.382Z,100.00
2022-09-24T19:34:03.038Z,100.00
2022-09-24T19:36:31.526Z,100.00
2022-09-24T19:38:58.877Z,100.00
2022-09-24T19:41:26.952Z,100.00
2022-09-24T19:43:57.101Z,100.00
2022-09-24T19:46:27.316Z,100.00
2022-09-24T19:48:56.262Z,100.00
2022-09-24T19:51:29.019Z,100.00
2022-09-24T19:53:58.911Z,100.00
2022-09-24T19:56:27.199Z,100.00
2022-09-24T19:58:56.543Z,100.00
2022-09-24T20:01:28.150Z,100.00
2022-09-24T20:03:57.129Z,100.00
2022-09-24T20:06:28.566Z,100.00
2022-09-24T20:08:56.488Z,100.00
2022-09-24T20:11:25.628Z,100.00
2022-09-24T20:13:55.472Z,100.00
2022-09-24T20:16:27.588Z,100.00
2022-09-24T20:18:57.799Z,100.00
2022-09-24T20:21:28.417Z,100.00
2022-09-24T20:23:57.923Z,100.00
2022-09-24T20:26:44.968Z,100.00
2022-09-24T20:29:13.879Z,100.00
2022-09-24T20:31:51.318Z,100.00
2022-09-24T20:34:21.347Z,100.00
2022-09-24T20:36:49.335Z,100.00
2022-09-24T20:39:16.919Z,100.00
2022-09-24T20:41:45.435Z,100.00
2022-09-24T20:44:12.871Z,100.00
2022-09-24T20:46:40.302Z,100.00
2022-09-24T20:49:07.748Z,100.00
2022-09-24T20:51:34.914Z,100.00
2022-09-24T20:54:02.197Z,100.00
2022-09-24T20:56:30.804Z,100.00
2022-09-24T20:58:58.748Z,100.00
2022-09-24T21:01:26.133Z,100.00
2022-09-24T21:03:53.829Z,100.00
2022-09-24T21:06:23.598Z,100.00
2022-09-24T21:08:51.894Z,100.00
2022-09-24T21:11:22.878Z,100.00
2022-09-24T21:13:51.988Z,100.00
2022-09-24T21:16:22.381Z,100.00
2022-09-24T21:18:51.045Z,100.00
2022-09-24T21:21:20.967Z,100.00
2022-09-24T21:23:50.779Z,100.00
2022-09-24T21:26:32.461Z,100.00
2022-09-24T21:29:08.203Z,100.00
2022-09-24T21:31:37.841Z,100.00
2022-09-24T21:34:06.999Z,100.00
2022-09-24T21:36:43.920Z,100.00
2022-09-24T21:39:18.348Z,100.00
2022-09-24T21:41:50.065Z,100.00
2022-09-24T21:44:17.917Z,100.00
2022-09-24T21:46:46.195Z,100.00
2022-09-24T21:49:13.792Z,100.00
2022-09-24T21:51:42.054Z,100.00
2022-09-24T21:54:14.222Z,100.00
2022-09-24T21:56:41.928Z,100.00
2022-09-24T21:59:28.499Z,100.00
2022-09-24T22:01:56.390Z,100.00
2022-09-24T22:04:23.862Z,100.00
2022-09-24T22:06:51.414Z,100.00
2022-09-24T22:09:19.245Z,100.00
2022-09-24T22:11:47.120Z,100.00
2022-09-24T22:14:14.808Z,100.00
2022-09-24T22:16:42.162Z,100.00
2022-09-24T22:19:10.747Z,100.00
2022-09-24T22:21:38.095Z,100.00
2022-09-24T22:24:05.791Z,100.00
2022-09-24T22:26:33.364Z,100.00
2022-09-24T22:29:01.408Z,100.00
2022-09-24T22:31:28.622Z,100.00
2022-09-24T22:34:15.177Z,100.00
2022-09-24T22:36:42.631Z,100.00
2022-09-24T22:39:09.997Z,100.00
2022-09-24T22:41:39.877Z,100.00
2022-09-24T22:44:07.727Z,100.00
2022-09-24T22:46:36.422Z,100.00
2022-09-24T22:49:05.344Z,100.00
2022-09-24T22:51:33.755Z,100.00
2022-09-24T22:54:01.325Z,100.00
2022-09-24T22:56:28.721Z,100.00
2022-09-24T22:58:58.521Z,100.00
2022-09-24T23:01:32.121Z,100.00
2022-09-24T23:04:00.875Z,100.00
2022-09-24T23:06:30.391Z,100.00
2022-09-24T23:08:57.703Z,100.00
2022-09-24T23:11:30.757Z,100.00
2022-09-24T23:14:00.802Z,100.00
2022-09-24T23:16:30.815Z,100.00
2022-09-24T23:19:01.229Z,100.00
2022-09-24T23:21:33.259Z,100.00
2022-09-24T23:24:22.501Z,100.00
2022-09-24T23:26:51.220Z,100.00
2022-09-24T23:29:18.391Z,100.00
2022-09-24T23:31:45.574Z,100.00
2022-09-24T23:34:13.808Z,100.00
2022-09-24T23:36:41.202Z,100.00
2022-09-24T23:39:08.380Z,100.00
2022-09-24T23:41:35.953Z,100.00
2022-09-24T23:44:03.445Z,100.00
2022-09-24T23:46:33.815Z,100.00
2022-09-24T23:49:01.436Z,100.00
2022-09-24T23:51:28.588Z,100.00
2022-09-24T23:53:55.814Z,100.00
2022-09-24T23:56:23.432Z,100.00
2022-09-24T23:58:50.952Z,100.00
